createdAt,value
2019-05-03T00:02:21.775Z,74.63
2019-05-03T00:07:42.085Z,74.69
2019-05-03T00:13:01.932Z,74.32
2019-05-03T00:18:22.125Z,74.31
2019-05-03T00:23:41.802Z,74.39
2019-05-03T00:29:02.170Z,74.57
2019-05-03T00:34:41.837Z,75.04
2019-05-03T00:40:05.015Z,75.25
2019-05-03T00:45:23.680Z,75.17
2019-05-03T00:50:42.592Z,75.23
2019-05-03T00:56:01.772Z,75.56
2019-05-03T01:01:22.413Z,75.28
2019-05-03T01:06:42.386Z,75.27
2019-05-03T01:12:01.960Z,75.70
2019-05-03T01:17:22.458Z,75.32
2019-05-03T01:22:42.514Z,75.40
2019-05-03T01:28:01.597Z,75.67
2019-05-03T01:33:20.356Z,76.08
2019-05-03T01:38:38.987Z,76.31
2019-05-03T01:43:58.178Z,76.06
2019-05-03T01:49:22.861Z,75.91
2019-05-03T01:54:42.703Z,75.62
2019-05-03T02:00:02.797Z,76.02
2019-05-03T02:05:39.667Z,76.08
2019-05-03T02:10:58.447Z,75.90
2019-05-03T02:16:17.117Z,76.09
2019-05-03T02:21:35.892Z,76.15
2019-05-03T02:26:54.479Z,75.91
2019-05-03T02:32:13.424Z,75.83
2019-05-03T02:37:33.095Z,75.17
2019-05-03T02:43:05.878Z,75.55
2019-05-03T02:48:26.085Z,76.04
2019-05-03T02:53:45.700Z,75.84
2019-05-03T02:59:06.199Z,75.94
2019-05-03T03:04:26.560Z,76.02
2019-05-03T03:09:46.180Z,75.95
2019-05-03T03:15:06.349Z,76.16
2019-05-03T03:20:26.028Z,75.87
2019-05-03T03:25:50.133Z,75.37
2019-05-03T03:31:28.230Z,76.04
2019-05-03T03:37:01.006Z,76.25
2019-05-03T03:42:16.071Z,76.09
2019-05-03T03:47:38.200Z,76.11
2019-05-03T03:52:59.178Z,75.97
2019-05-03T03:58:23.013Z,75.85
2019-05-03T04:03:38.948Z,75.06
2019-05-03T04:08:57.695Z,75.26
2019-05-03T04:14:18.172Z,75.12
2019-05-03T04:19:38.481Z,72.77
2019-05-03T04:24:57.146Z,73.47
2019-05-03T04:30:16.538Z,73.25
2019-05-03T04:35:36.319Z,73.61
2019-05-03T04:40:56.231Z,74.21
2019-05-03T04:46:25.480Z,74.73
2019-05-03T04:51:46.253Z,74.91
2019-05-03T04:57:06.579Z,74.90
2019-05-03T05:02:26.646Z,75.28
2019-05-03T05:07:45.861Z,74.78
2019-05-03T05:13:05.440Z,74.04
2019-05-03T05:18:35.562Z,74.19
2019-05-03T05:23:59.069Z,73.08
2019-05-03T05:29:19.343Z,72.30
2019-05-03T05:34:38.021Z,71.99
2019-05-03T05:39:56.577Z,71.74
2019-05-03T05:45:15.433Z,70.50
2019-05-03T05:50:38.742Z,70.02
2019-05-03T05:55:59.061Z,70.95
2019-05-03T06:01:19.331Z,72.42
2019-05-03T06:06:51.656Z,71.65
2019-05-03T06:12:11.924Z,71.75
2019-05-03T06:17:35.200Z,71.39
2019-05-03T06:22:55.418Z,69.48
2019-05-03T06:28:20.679Z,69.85
2019-05-03T06:33:36.097Z,67.86
2019-05-03T06:38:54.855Z,67.39
2019-05-03T06:44:14.505Z,68.33
2019-05-03T06:49:34.558Z,66.42
2019-05-03T06:54:55.231Z,67.68
2019-05-03T07:00:18.418Z,61.93
2019-05-03T07:05:50.606Z,62.78
2019-05-03T07:11:10.399Z,58.02
2019-05-03T07:16:29.050Z,50.06
2019-05-03T07:21:47.799Z,54.48
2019-05-03T07:27:06.477Z,53.84
2019-05-03T07:32:25.198Z,53.73
2019-05-03T07:37:45.085Z,52.88
2019-05-03T07:43:04.551Z,51.86
2019-05-03T07:48:25.277Z,53.32
2019-05-03T07:53:45.119Z,47.86
2019-05-03T07:59:06.456Z,40.07
2019-05-03T08:04:25.532Z,45.02
2019-05-03T08:09:45.298Z,46.22
2019-05-03T08:15:06.219Z,49.13
2019-05-03T08:20:24.974Z,49.47
2019-05-03T08:25:44.646Z,54.32
2019-05-03T08:31:23.898Z,50.41
2019-05-03T08:36:58.770Z,48.85
2019-05-03T08:42:19.029Z,47.72
2019-05-03T08:47:37.666Z,47.52
2019-05-03T08:52:56.216Z,49.13
2019-05-03T08:58:15.484Z,48.71
2019-05-03T09:03:37.987Z,47.85
2019-05-03T09:08:57.248Z,50.95
2019-05-03T09:14:17.150Z,46.00
2019-05-03T09:19:35.864Z,45.78
2019-05-03T09:24:54.773Z,45.25
2019-05-03T09:30:14.646Z,44.75
2019-05-03T09:35:35.875Z,44.70
2019-05-03T09:40:54.581Z,48.41
2019-05-03T09:46:14.536Z,45.54
2019-05-03T09:51:35.003Z,48.53
2019-05-03T09:57:00.090Z,46.26
2019-05-03T10:02:18.777Z,42.87
2019-05-03T10:07:37.361Z,44.29
2019-05-03T10:12:56.140Z,43.53
2019-05-03T10:18:16.701Z,42.46
2019-05-03T10:23:37.007Z,44.31
2019-05-03T10:28:55.724Z,44.71
2019-05-03T10:34:15.549Z,43.55
2019-05-03T10:39:36.121Z,44.33
2019-05-03T10:44:55.521Z,44.56
2019-05-03T10:50:15.579Z,40.90
2019-05-03T10:55:35.747Z,43.54
2019-05-03T11:00:56.698Z,42.67
2019-05-03T11:06:15.033Z,41.40
2019-05-03T11:11:35.166Z,43.19
2019-05-03T11:16:55.281Z,42.09
2019-05-03T11:22:14.581Z,40.74
2019-05-03T11:27:44.684Z,43.67
2019-05-03T11:33:05.066Z,39.71
2019-05-03T11:38:25.555Z,40.88
2019-05-03T11:43:44.411Z,38.82
2019-05-03T11:49:05.545Z,39.89
2019-05-03T11:54:25.006Z,35.80
2019-05-03T11:59:45.264Z,34.10
2019-05-03T12:05:06.696Z,36.11
2019-05-03T12:10:50.956Z,34.34
2019-05-03T12:15:45.943Z,36.62
2019-05-03T12:35:35.752Z,37.86
2019-05-03T12:40:54.754Z,36.73
2019-05-03T12:46:16.692Z,34.30
2019-05-03T12:51:34.518Z,35.38
2019-05-03T12:56:53.315Z,38.37
2019-05-03T13:02:19.337Z,38.40
2019-05-03T13:07:39.594Z,38.38
2019-05-03T13:12:58.296Z,37.34
2019-05-03T13:18:16.914Z,36.44
2019-05-03T13:23:35.851Z,41.58
2019-05-03T13:28:55.380Z,40.46
2019-05-03T13:34:15.911Z,41.36
2019-05-03T13:39:35.944Z,40.52
2019-05-03T13:44:55.288Z,36.35
2019-05-03T13:50:15.133Z,35.82
2019-05-03T13:55:35.302Z,35.80
2019-05-03T14:00:54.915Z,38.90
2019-05-03T14:06:13.849Z,36.23
2019-05-03T14:11:32.406Z,38.05
2019-05-03T14:16:51.118Z,37.18
2019-05-03T14:22:11.467Z,38.55
2019-05-03T14:27:30.151Z,36.21
2019-05-03T14:32:49.051Z,36.74
2019-05-03T14:38:07.674Z,37.08
2019-05-03T14:43:26.309Z,38.65
2019-05-03T14:48:45.802Z,38.85
2019-05-03T14:54:05.685Z,38.56
2019-05-03T14:59:28.948Z,37.38
2019-05-03T15:04:47.789Z,39.90
2019-05-03T15:10:07.364Z,40.35
2019-05-03T15:15:28.697Z,39.49
2019-05-03T15:20:46.359Z,39.88
2019-05-03T15:26:05.295Z,42.24
2019-05-03T15:31:24.570Z,41.52
2019-05-03T15:36:45.030Z,42.76
2019-05-03T15:42:05.257Z,43.28
2019-05-03T15:47:28.644Z,41.18
2019-05-03T15:52:47.384Z,41.50
2019-05-03T15:58:06.303Z,43.12
2019-05-03T16:03:25.348Z,43.15
2019-05-03T16:08:44.655Z,43.15
2019-05-03T16:14:04.545Z,43.27
2019-05-03T16:19:24.310Z,45.27
2019-05-03T16:24:46.826Z,46.02
2019-05-03T16:30:06.803Z,44.74
2019-05-03T16:35:25.683Z,45.66
2019-05-03T16:40:45.144Z,45.05
2019-05-03T16:46:05.625Z,45.23
2019-05-03T16:51:25.404Z,44.18
2019-05-03T16:56:44.412Z,45.40
2019-05-03T17:02:03.427Z,47.62
2019-05-03T17:07:40.296Z,47.38
2019-05-03T17:12:58.987Z,47.43
2019-05-03T17:18:17.601Z,48.62
2019-05-03T17:23:36.229Z,48.30
2019-05-03T17:28:55.453Z,48.93
2019-05-03T17:34:14.472Z,49.58
2019-05-03T17:39:51.235Z,50.63
2019-05-03T17:45:11.539Z,51.53
2019-05-03T17:50:30.197Z,50.12
2019-05-03T17:55:50.475Z,49.96
2019-05-03T18:01:25.623Z,50.59
2019-05-03T18:06:58.097Z,50.49
2019-05-03T18:12:16.732Z,51.00
2019-05-03T18:17:35.397Z,51.19
2019-05-03T18:22:54.684Z,50.83
2019-05-03T18:28:14.863Z,50.74
2019-05-03T18:33:33.606Z,50.91
2019-05-03T18:38:52.317Z,52.10
2019-05-03T18:44:18.218Z,51.86
2019-05-03T18:49:37.056Z,51.46
2019-05-03T18:54:55.720Z,51.61
2019-05-03T19:00:17.034Z,51.52
2019-05-03T19:05:40.258Z,52.19
2019-05-03T19:11:06.158Z,52.24
2019-05-03T19:16:32.659Z,51.74
2019-05-03T19:21:51.335Z,52.68
2019-05-03T19:27:10.216Z,52.24
2019-05-03T19:32:28.869Z,53.02
2019-05-03T19:37:47.507Z,52.75
2019-05-03T19:43:06.181Z,54.02
2019-05-03T19:48:25.596Z,53.84
2019-05-03T19:53:48.876Z,54.19
2019-05-03T19:59:09.540Z,54.68
2019-05-03T20:04:29.818Z,55.31
2019-05-03T20:09:48.589Z,54.76
2019-05-03T20:15:07.510Z,55.69
2019-05-03T20:20:26.140Z,55.87
2019-05-03T20:25:44.956Z,56.15
2019-05-03T20:31:04.995Z,56.33
2019-05-03T20:36:23.597Z,57.43
2019-05-03T20:41:42.321Z,57.44
2019-05-03T20:47:08.442Z,58.28
2019-05-03T20:52:27.077Z,58.85
2019-05-03T20:57:45.785Z,59.24
2019-05-03T21:03:04.929Z,60.36
2019-05-03T21:08:25.437Z,61.10
2019-05-03T21:13:45.007Z,62.52
2019-05-03T21:19:05.398Z,64.10
2019-05-03T21:24:26.192Z,65.41
2019-05-03T21:29:49.573Z,66.34
2019-05-03T21:35:08.390Z,67.20
2019-05-03T21:40:27.037Z,68.69
2019-05-03T21:45:47.249Z,68.96
2019-05-03T21:51:06.174Z,69.53
2019-05-03T21:56:25.067Z,70.01
2019-05-03T22:01:45.720Z,70.09
2019-05-03T22:07:05.205Z,70.10
2019-05-03T22:12:24.892Z,70.45
2019-05-03T22:17:54.028Z,70.94
2019-05-03T22:23:31.955Z,71.31
2019-05-03T22:28:50.515Z,71.63
2019-05-03T22:34:09.153Z,72.48
2019-05-03T22:39:27.782Z,71.85
2019-05-03T22:44:46.708Z,72.45
2019-05-03T22:50:06.076Z,73.37
2019-05-03T22:55:24.787Z,74.98
2019-05-03T23:00:44.545Z,74.98
2019-05-03T23:06:05.011Z,74.72
2019-05-03T23:11:24.525Z,74.98
2019-05-03T23:16:44.835Z,75.24
2019-05-03T23:22:08.363Z,75.37
2019-05-03T23:27:26.838Z,75.24
2019-05-03T23:32:45.582Z,74.87
2019-05-03T23:38:04.824Z,74.15
2019-05-03T23:43:25.167Z,72.81
2019-05-03T23:48:44.645Z,73.61
2019-05-03T23:54:05.591Z,75.05
2019-05-03T23:59:24.366Z,74.51
